Time;durP1;ratioP1;P1;durP2;ratioP2;P2;SDS_P1;SDS_P2;PMS_P1;PMS_P2;Temp;Humidity;BMP_temperature;BMP_pressure;BME280_temperature;BME280_humidity;BME280_pressure;Samples;Min_cycle;Max_cycle;Signal;HPM_P1;HPM_P2
2022/05/19 00:02:18;;;;;;;3.45;1.30;;;;;;;13.66;35.40;101919.81;5095744;28;20060;-61
2022/05/19 00:04:48;;;;;;;3.33;1.08;;;;;;;13.64;35.08;101912.88;5095598;28;20055;-61
2022/05/19 00:07:32;;;;;;;2.53;1.00;;;;;;;13.64;34.92;101907.66;5095142;28;20062;-61
2022/05/19 00:10:11;;;;;;;4.43;1.27;;;;;;;13.59;35.81;101915.50;5095350;28;20118;-61
2022/05/19 00:12:39;;;;;;;2.20;1.17;;;;;;;13.52;36.00;101913.72;5094878;28;20520;-61
2022/05/19 00:15:08;;;;;;;5.13;1.27;;;;;;;13.49;36.30;101918.94;5095028;28;20108;-61
2022/05/19 00:17:39;;;;;;;4.22;1.10;;;;;;;13.45;36.25;101906.81;5095023;28;20051;-61
2022/05/19 00:20:11;;;;;;;2.72;1.40;;;;;;;13.43;36.16;101908.53;5080821;28;20048;-61
2022/05/19 00:22:57;;;;;;;2.80;1.20;;;;;;;13.40;35.88;101903.34;5081155;28;20048;-61
2022/05/19 00:25:25;;;;;;;6.07;1.30;;;;;;;13.34;36.11;101903.34;5095119;28;20051;-61
2022/05/19 00:27:55;;;;;;;2.45;1.13;;;;;;;13.31;36.15;101898.16;5094942;28;20048;-61
2022/05/19 00:30:23;;;;;;;2.40;1.10;;;;;;;13.29;36.40;101899.88;5094946;28;20047;-61
2022/05/19 00:35:33;;;;;;;4.53;1.33;;;;;;;13.20;36.72;101896.44;5095022;28;20052;-61
2022/05/19 00:38:04;;;;;;;2.15;1.20;;;;;;;13.17;36.97;101896.44;5094842;28;20044;-61
2022/05/19 00:40:32;;;;;;;4.78;1.80;;;;;;;13.14;37.15;101896.41;5094322;28;20036;-61
2022/05/19 00:43:03;;;;;;;4.78;1.83;;;;;;;13.11;37.10;101893.81;5074122;28;20056;-60
2022/05/19 00:45:44;;;;;;;3.75;1.20;;;;;;;13.12;36.97;101892.94;5081129;28;20083;-61
2022/05/19 00:48:21;;;;;;;3.22;1.40;;;;;;;13.11;37.04;101896.41;5094321;28;20444;-61
2022/05/19 00:50:56;;;;;;;2.83;1.20;;;;;;;13.12;37.22;101897.28;5094178;28;20743;-61
2022/05/19 00:53:40;;;;;;;3.88;1.55;;;;;;;13.11;37.17;101886.00;5094682;28;20051;-61
2022/05/19 00:56:15;;;;;;;5.68;1.77;;;;;;;13.08;37.31;101878.19;5093681;28;20145;-61
2022/05/19 00:58:48;;;;;;;3.53;1.30;;;;;;;13.07;37.60;101876.44;5094329;28;20471;-61
2022/05/19 01:01:26;;;;;;;3.33;1.48;;;;;;;13.05;37.70;101879.91;5089243;28;20052;-61
2022/05/19 01:04:01;;;;;;;5.70;2.13;;;;;;;12.98;38.15;101879.03;5094148;28;20048;-61
2022/05/19 01:06:31;;;;;;;5.38;1.90;;;;;;;12.91;38.36;101867.75;5094298;28;20070;-61
2022/05/19 01:09:10;;;;;;;4.43;2.20;;;;;;;12.87;38.44;101867.75;5094413;28;20040;-61
2022/05/19 01:11:38;;;;;;;6.63;1.60;;;;;;;12.81;38.51;101866.03;5094097;28;20441;-61
2022/05/19 01:14:09;;;;;;;3.92;2.20;;;;;;;12.79;38.39;101861.69;5093767;28;20071;-61
2022/05/19 01:16:41;;;;;;;3.38;1.77;;;;;;;12.76;38.33;101859.06;5094376;28;20055;-60
2022/05/19 01:19:22;;;;;;;4.65;1.85;;;;;;;12.75;38.14;101857.34;5087826;28;20072;-60
2022/05/19 01:21:51;;;;;;;4.78;1.70;;;;;;;12.74;38.25;101863.41;5073771;28;20131;-61
2022/05/19 01:24:44;;;;;;;2.70;1.58;;;;;;;12.75;37.78;101849.53;5093621;28;20089;-60
2022/05/19 01:27:21;;;;;;;3.40;1.67;;;;;;;12.75;38.15;101855.59;5094228;28;20067;-61
2022/05/19 01:32:32;;;;;;;3.60;1.30;;;;;;;12.70;38.20;101856.47;5093707;28;20056;-61
2022/05/19 01:35:02;;;;;;;5.60;1.80;;;;;;;12.67;38.38;101846.94;5090853;28;20040;-61
2022/05/19 01:37:33;;;;;;;6.90;1.58;;;;;;;12.67;38.18;101846.06;5094054;28;20048;-61
2022/05/19 01:40:09;;;;;;;5.45;1.67;;;;;;;12.67;38.07;101841.72;5093826;28;20072;-61
2022/05/19 01:42:51;;;;;;;4.13;1.70;;;;;;;12.67;38.00;101846.06;5077512;28;20049;-61
2022/05/19 01:45:36;;;;;;;5.45;2.03;;;;;;;12.66;37.85;101846.94;5077980;28;20044;-60
2022/05/19 01:48:14;;;;;;;4.90;1.40;;;;;;;12.66;37.91;101846.94;5093887;28;20075;-58
2022/05/19 01:50:51;;;;;;;3.88;1.27;;;;;;;12.64;38.21;101842.59;5092857;28;20052;-59
2022/05/19 01:53:28;;;;;;;4.63;1.40;;;;;;;12.67;37.78;101843.47;5093432;28;20079;-58
2022/05/19 01:56:03;;;;;;;3.67;1.20;;;;;;;12.71;38.01;101842.59;5089240;28;20062;-59
2022/05/19 01:58:41;;;;;;;4.63;1.25;;;;;;;12.73;37.81;101835.66;5086695;28;20059;-60
2022/05/19 02:01:13;;;;;;;2.65;1.20;;;;;;;12.73;37.95;101840.88;5092193;28;20052;-58
2022/05/19 02:03:58;;;;;;;3.63;1.35;;;;;;;12.75;37.52;101828.72;5093569;28;20044;-59
2022/05/19 02:06:33;;;;;;;3.20;1.25;;;;;;;12.76;37.70;101840.88;5093045;28;20688;-59
2022/05/19 02:09:03;;;;;;;4.25;1.63;;;;;;;12.77;37.80;101843.47;5092925;28;20048;-59
2022/05/19 02:11:35;;;;;;;3.92;2.15;;;;;;;12.79;38.00;101846.06;5077716;28;20044;-59
2022/05/19 02:14:14;;;;;;;3.60;1.50;;;;;;;12.79;38.53;101840.88;5072481;28;20056;-58
2022/05/19 02:16:44;;;;;;;3.30;1.50;;;;;;;12.76;38.50;101835.66;5070950;28;20155;-59
2022/05/19 02:19:15;;;;;;;2.10;1.30;;;;;;;12.74;38.46;101827.84;5077663;28;20052;-59
2022/05/19 02:21:44;;;;;;;4.72;1.40;;;;;;;12.75;38.50;101833.94;5093082;28;20043;-58
2022/05/19 02:24:20;;;;;;;2.95;1.17;;;;;;;12.75;38.50;101833.94;5092404;28;20428;-58
2022/05/19 02:26:50;;;;;;;4.00;1.27;;;;;;;12.74;39.13;101832.19;5092561;28;20372;-59
2022/05/19 02:29:23;;;;;;;6.45;1.35;;;;;;;12.73;39.27;101835.66;5092792;28;20059;-56
2022/05/19 02:31:54;;;;;;;3.40;1.45;;;;;;;12.72;39.27;101828.72;5093332;28;20087;-58
2022/05/19 02:34:25;;;;;;;4.20;1.48;;;;;;;12.69;39.06;101828.72;5093233;28;20062;-60
2022/05/19 02:36:53;;;;;;;4.15;1.10;;;;;;;12.67;38.98;101827.84;5093514;28;20051;-60
2022/05/19 02:39:22;;;;;;;3.42;1.10;;;;;;;12.67;38.93;101825.25;5082246;28;20159;-59
2022/05/19 02:42:00;;;;;;;4.03;1.05;;;;;;;12.66;38.83;101826.13;5074191;28;20060;-59
2022/05/19 02:44:30;;;;;;;5.40;1.20;;;;;;;12.64;38.60;101827.00;5073142;28;20071;-59
2022/05/19 02:47:01;;;;;;;4.40;1.50;;;;;;;12.66;38.17;101823.53;5091168;28;20085;-60
2022/05/19 02:49:28;;;;;;;4.43;1.67;;;;;;;12.67;38.68;101823.53;5092779;28;20496;-59
2022/05/19 02:51:58;;;;;;;6.53;1.10;;;;;;;12.67;38.48;101826.13;5092963;28;20059;-58
2022/05/19 02:54:28;;;;;;;3.08;1.30;;;;;;;12.67;38.76;101825.25;5093679;28;20048;-59
2022/05/19 02:56:56;;;;;;;3.83;1.80;;;;;;;12.66;38.39;101828.72;5093118;28;20091;-58
2022/05/19 02:59:24;;;;;;;4.97;2.72;;;;;;;12.67;38.69;101830.47;5092486;28;20048;-59
2022/05/19 03:02:07;;;;;;;6.72;4.05;;;;;;;12.67;38.66;101830.47;5092913;28;20059;-58
2022/05/19 03:04:35;;;;;;;9.32;5.05;;;;;;;12.69;38.61;101831.31;5097038;28;20128;-58
2022/05/19 03:07:03;;;;;;;10.05;5.25;;;;;;;12.69;38.59;101832.19;5096998;28;20056;-58
2022/05/19 03:12:21;;;;;;;8.07;4.07;;;;;;;12.70;38.84;101830.47;5096286;28;20473;-58
2022/05/19 03:14:52;;;;;;;8.38;3.80;;;;;;;12.73;38.49;101830.47;5096453;28;20078;-59
2022/05/19 03:17:29;;;;;;;9.18;2.88;;;;;;;12.78;38.23;101823.53;5117031;28;20125;-58
2022/05/19 03:19:59;;;;;;;8.55;3.40;;;;;;;12.84;38.58;101833.91;5103816;28;20063;-59
2022/05/19 03:22:29;;;;;;;8.48;2.80;;;;;;;12.89;38.94;101833.06;5096521;28;20052;-58
2022/05/19 03:25:03;;;;;;;7.47;3.25;;;;;;;12.93;39.39;101833.91;5096500;28;20056;-58
2022/05/19 03:27:32;;;;;;;7.15;2.92;;;;;;;12.95;39.68;101829.56;5096670;28;20051;-59
2022/05/19 03:30:01;;;;;;;7.13;3.22;;;;;;;12.99;39.08;101826.09;5096540;28;20052;-59
2022/05/19 03:32:41;;;;;;;5.28;2.58;;;;;;;13.10;39.13;101836.53;5096332;28;20159;-60
2022/05/19 03:35:19;;;;;;;4.50;2.63;;;;;;;13.15;39.20;101833.03;5096382;28;20067;-59
2022/05/19 03:37:49;;;;;;;6.57;2.30;;;;;;;13.27;39.23;101827.84;5096359;28;20055;-58
2022/05/19 03:40:20;;;;;;;8.95;2.22;;;;;;;13.39;39.17;101833.91;5096292;28;20048;-59
2022/05/19 03:42:48;;;;;;;4.10;2.05;;;;;;;13.50;38.81;101819.97;5076071;28;20053;-59
2022/05/19 03:45:18;;;;;;;7.90;2.00;;;;;;;13.64;39.01;101819.94;5080446;28;20044;-59
2022/05/19 03:47:59;;;;;;;17.52;2.08;;;;;;;13.79;38.57;101825.09;5096316;28;20055;-57
2022/05/19 03:50:29;;;;;;;11.10;2.08;;;;;;;13.90;38.42;101828.50;5096427;28;20136;-58
2022/05/19 03:52:57;;;;;;;4.60;2.00;;;;;;;14.04;38.52;101830.16;5095792;28;20052;-58
2022/05/19 03:55:27;;;;;;;3.17;1.60;;;;;;;14.14;38.41;101829.28;5095789;28;20080;-58
2022/05/19 03:57:57;;;;;;;7.80;1.73;;;;;;;14.26;38.48;101825.72;5096205;28;20056;-58
2022/05/19 04:00:27;;;;;;;11.30;2.15;;;;;;;14.34;38.54;101823.94;5096011;28;20105;-58
2022/05/19 04:03:03;;;;;;;6.55;1.30;;;;;;;14.43;38.71;101829.97;5095830;28;20162;-59
2022/05/19 04:05:33;;;;;;;9.32;2.33;;;;;;;14.50;38.38;101826.44;5095805;28;20055;-59
2022/05/19 04:08:03;;;;;;;11.02;2.30;;;;;;;14.63;38.34;101826.38;5095842;28;20113;-59
2022/05/19 04:10:32;;;;;;;7.40;1.60;;;;;;;14.71;37.58;101824.56;5096009;28;20131;-57
2022/05/19 04:13:03;;;;;;;5.82;1.52;;;;;;;14.83;37.35;101824.47;5095199;28;20082;-59
2022/05/19 04:15:36;;;;;;;6.22;1.55;;;;;;;14.94;36.57;101817.41;5094242;28;20065;-59
2022/05/19 04:18:19;;;;;;;8.13;1.15;;;;;;;15.07;34.15;101813.78;5095675;28;20113;-58
2022/05/19 04:20:49;;;;;;;3.50;0.82;;;;;;;15.19;34.87;101817.19;5075525;28;20048;-59
2022/05/19 04:23:17;;;;;;;2.38;0.77;;;;;;;15.33;33.82;101815.28;5075300;28;20086;-59
2022/05/19 04:25:46;;;;;;;6.10;1.38;;;;;;;15.48;34.08;101809.88;5075117;28;20389;-59
2022/05/19 04:28:13;;;;;;;2.88;1.60;;;;;;;15.64;33.44;101811.50;5075201;28;20152;-59
2022/05/19 04:30:44;;;;;;;3.95;1.10;;;;;;;15.80;32.88;101811.28;5074145;28;20048;-59
2022/05/19 04:33:15;;;;;;;2.92;1.33;;;;;;;15.98;32.79;101816.28;5074861;28;20076;-59
2022/05/19 04:35:42;;;;;;;4.60;1.52;;;;;;;16.14;32.07;101811.72;5074710;28;20052;-59
2022/05/19 04:38:18;;;;;;;6.75;1.33;;;;;;;16.32;31.81;101816.69;5074604;28;20052;-58
2022/05/19 04:40:49;;;;;;;7.93;1.17;;;;;;;16.50;31.78;101826.00;5074265;28;20094;-58
2022/05/19 04:43:26;;;;;;;4.55;1.23;;;;;;;16.66;31.51;101819.69;5074853;28;20059;-57
2022/05/19 04:46:02;;;;;;;50.13;4.82;;;;;;;16.82;31.38;101815.91;5083941;28;20472;-58
2022/05/19 04:48:37;;;;;;;4.78;1.10;;;;;;;17.02;30.78;101818.19;5094290;28;20349;-59
2022/05/19 04:51:06;;;;;;;3.33;0.98;;;;;;;17.14;30.64;101823.19;5094301;28;20044;-58
2022/05/19 04:53:36;;;;;;;9.98;1.73;;;;;;;17.29;30.90;101824.69;5094039;28;20059;-59
2022/05/19 04:56:06;;;;;;;6.72;1.40;;;;;;;17.42;30.49;101810.44;5095044;28;20052;-59
2022/05/19 04:58:34;;;;;;;23.98;2.85;;;;;;;17.54;30.41;101812.81;5094601;28;20496;-59
2022/05/19 05:01:04;;;;;;;137.85;7.15;;;;;;;17.64;29.10;101816.13;5094743;28;20054;-59
2022/05/19 05:03:37;;;;;;;8.68;2.00;;;;;;;17.76;29.22;101815.94;5094402;28;20495;-59
2022/05/19 05:06:05;;;;;;;4.07;1.00;;;;;;;17.87;29.52;101813.06;5093085;28;20464;-60
2022/05/19 05:08:33;;;;;;;3.72;1.42;;;;;;;17.96;29.26;101818.13;5105363;28;20051;-59
2022/05/19 05:11:01;;;;;;;6.68;1.52;;;;;;;18.03;29.07;101818.84;5114487;28;20467;-59
2022/05/19 05:13:29;;;;;;;4.55;1.38;;;;;;;18.10;28.71;101816.03;5114645;28;20522;-59
2022/05/19 05:15:58;;;;;;;4.53;1.60;;;;;;;18.21;28.69;101814.06;5114816;28;20478;-59
2022/05/19 05:18:26;;;;;;;7.25;1.55;;;;;;;18.34;28.42;101819.91;5114470;28;20044;-59
2022/05/19 05:21:15;;;;;;;9.48;1.52;;;;;;;18.45;27.42;101820.50;5094480;28;20059;-60
2022/05/19 05:23:44;;;;;;;13.77;2.40;;;;;;;18.58;27.96;101815.81;5094305;28;20401;-60
2022/05/19 05:26:21;;;;;;;17.67;1.90;;;;;;;18.68;27.73;101819.97;5093801;28;20694;-59
2022/05/19 05:28:48;;;;;;;6.32;1.83;;;;;;;18.82;27.42;101827.53;5094217;28;20438;-60
2022/05/19 05:31:18;;;;;;;17.30;3.75;;;;;;;18.98;27.15;101822.72;5094155;28;20072;-59
2022/05/19 05:36:34;;;;;;;5.38;1.30;;;;;;;19.31;26.41;101806.09;5093731;28;20469;-59
2022/05/19 05:39:01;;;;;;;12.60;1.73;;;;;;;19.47;26.64;101807.38;5093974;28;20533;-59
2022/05/19 05:41:29;;;;;;;9.60;1.35;;;;;;;19.67;26.30;101811.22;5086221;28;20040;-60
2022/05/19 05:43:57;;;;;;;5.88;1.38;;;;;;;19.87;25.95;101814.16;5073686;28;20106;-58
2022/05/19 05:46:27;;;;;;;6.05;1.33;;;;;;;20.06;25.72;101814.44;5087374;28;20060;-59
2022/05/19 05:48:57;;;;;;;8.32;2.05;;;;;;;20.27;25.46;101812.91;5094043;28;20135;-59
2022/05/19 05:51:27;;;;;;;8.93;1.55;;;;;;;20.45;25.19;101815.88;5093680;28;20052;-58
2022/05/19 05:54:10;;;;;;;9.73;2.35;;;;;;;20.66;24.27;101814.31;5093733;28;20159;-59
2022/05/19 05:56:38;;;;;;;21.63;2.20;;;;;;;20.80;24.69;101814.69;5093687;28;20047;-58
2022/05/19 05:59:08;;;;;;;11.15;2.00;;;;;;;20.97;24.90;101818.56;5093703;28;20051;-58
2022/05/19 06:01:37;;;;;;;10.52;2.08;;;;;;;21.12;24.43;101818.03;5093590;28;20118;-57
2022/05/19 06:04:05;;;;;;;9.20;1.95;;;;;;;21.28;24.13;101813.97;5093554;28;20047;-59
2022/05/19 06:06:40;;;;;;;4.80;1.38;;;;;;;21.41;23.95;101809.13;5093371;28;20075;-59
2022/05/19 06:09:08;;;;;;;3.50;1.42;;;;;;;21.57;23.65;101807.63;5089584;28;20039;-56
2022/05/19 06:11:37;;;;;;;7.22;1.33;;;;;;;21.73;23.61;101810.56;5082593;28;20683;-56
2022/05/19 06:14:05;;;;;;;5.63;1.80;;;;;;;21.84;23.66;101797.81;5081197;28;20480;-55
2022/05/19 06:16:36;;;;;;;40.67;3.92;;;;;;;21.88;23.61;101804.72;5081789;28;20052;-52
2022/05/19 06:19:07;;;;;;;27.23;2.30;;;;;;;21.89;23.55;101801.16;5087299;28;20050;-52
2022/05/19 06:21:37;;;;;;;18.98;2.60;;;;;;;21.90;23.66;101805.53;5092837;28;20044;-52
2022/05/19 06:24:13;;;;;;;17.35;2.47;;;;;;;21.98;23.60;101805.22;5091822;28;20044;-53
2022/05/19 06:26:44;;;;;;;6.80;1.33;;;;;;;22.07;23.38;101807.53;5092307;28;20459;-55
2022/05/19 06:29:13;;;;;;;12.98;2.47;;;;;;;22.14;23.41;101805.50;5092628;28;20480;-55
2022/05/19 06:31:42;;;;;;;7.13;1.30;;;;;;;22.27;23.26;101806.72;5092682;28;20051;-55
2022/05/19 06:34:11;;;;;;;7.32;1.50;;;;;;;22.36;23.21;101811.63;5092185;28;20044;-58
2022/05/19 06:36:38;;;;;;;9.50;1.70;;;;;;;22.46;22.86;101802.44;5092542;28;20052;-54
2022/05/19 06:39:06;;;;;;;5.28;1.27;;;;;;;22.59;22.99;101808.94;5092458;28;20048;-57
2022/05/19 06:44:28;;;;;;;7.05;1.50;;;;;;;22.86;22.31;101800.78;5092460;28;20067;-56
2022/05/19 06:46:56;;;;;;;8.40;1.60;;;;;;;22.99;22.52;101796.72;5092347;28;20051;-55
2022/05/19 06:49:27;;;;;;;13.93;1.95;;;;;;;23.13;22.50;101793.47;5075755;28;20048;-57
2022/05/19 06:51:57;;;;;;;5.50;1.40;;;;;;;23.25;22.22;101788.50;5092609;28;20036;-56
2022/05/19 06:54:25;;;;;;;4.20;1.40;;;;;;;23.38;21.91;101793.22;5092543;28;20110;-57
2022/05/19 06:56:53;;;;;;;9.13;1.83;;;;;;;23.50;21.63;101790.91;5092567;28;20056;-53
2022/05/19 06:59:23;;;;;;;10.95;1.25;;;;;;;23.65;21.58;101786.72;5075757;28;20054;-56
2022/05/19 07:01:52;;;;;;;7.47;1.70;;;;;;;23.78;21.62;101782.56;5092061;28;20123;-55
2022/05/19 07:04:21;;;;;;;12.48;1.95;;;;;;;23.94;21.24;101789.81;5092299;28;20132;-55
2022/05/19 07:06:52;;;;;;;4.60;1.38;;;;;;;24.06;21.11;101782.16;5092391;28;20079;-53
2022/05/19 07:09:22;;;;;;;4.47;1.30;;;;;;;24.15;20.93;101778.19;5092397;28;20048;-51
2022/05/19 07:11:50;;;;;;;5.43;1.10;;;;;;;24.26;21.02;101778.53;5091927;28;20052;-53
2022/05/19 07:14:19;;;;;;;13.98;2.15;;;;;;;24.39;20.98;101779.66;5091844;28;20487;-55
2022/05/19 07:17:01;;;;;;;11.00;1.88;;;;;;;24.55;20.51;101779.78;5092335;28;20138;-51
2022/05/19 07:22:19;;;;;;;10.50;1.63;;;;;;;24.84;20.79;101786.25;5092025;28;20185;-53
2022/05/19 07:24:49;;;;;;;10.60;2.05;;;;;;;24.98;20.84;101777.63;5092465;28;20079;-51
2022/05/19 07:27:20;;;;;;;20.95;1.95;;;;;;;25.10;20.61;101777.84;5092410;28;20047;-52
2022/05/19 07:29:50;;;;;;;5.32;1.20;;;;;;;25.18;20.43;101764.16;5092501;28;20068;-52
2022/05/19 07:32:33;;;;;;;16.02;1.70;;;;;;;25.26;20.40;101761.09;5092214;28;20052;-54
2022/05/19 07:37:42;;;;;;;9.68;2.00;;;;;;;25.38;20.06;101765.75;5092238;28;20044;-54
2022/05/19 07:40:12;;;;;;;10.63;1.50;;;;;;;25.39;20.05;101762.16;5092013;28;20540;-56
2022/05/19 07:42:43;;;;;;;3.08;1.17;;;;;;;25.40;19.82;101758.56;5092505;28;20051;-55
2022/05/19 07:45:19;;;;;;;5.13;1.38;;;;;;;25.45;19.97;101762.66;5092171;28;20055;-54
2022/05/19 07:47:52;;;;;;;6.50;1.50;;;;;;;25.54;20.08;101761.34;5081303;28;20059;-55
2022/05/19 07:50:22;;;;;;;13.95;2.00;;;;;;;25.66;20.12;101760.69;5085690;28;20543;-54
2022/05/19 07:52:51;;;;;;;8.70;1.20;;;;;;;25.76;19.86;101764.53;5095111;28;20105;-57
2022/05/19 07:55:21;;;;;;;10.48;1.88;;;;;;;25.84;19.77;101761.47;5092632;28;20043;-56
2022/05/19 07:57:49;;;;;;;5.32;1.27;;;;;;;25.94;19.83;101756.47;5103041;28;20380;-56
2022/05/19 08:00:18;;;;;;;27.05;3.38;;;;;;;26.01;20.23;101755.19;5095611;28;20044;-57
2022/05/19 08:02:46;;;;;;;7.07;1.80;;;;;;;26.08;19.76;101756.56;5091935;28;20040;-57
2022/05/19 08:05:23;;;;;;;13.30;1.70;;;;;;;26.10;20.07;101754.69;5094881;28;20052;-55
2022/05/19 08:07:50;;;;;;;3.92;1.17;;;;;;;26.11;19.77;101761.72;5094870;28;20475;-55
2022/05/19 08:10:26;;;;;;;4.20;1.17;;;;;;;26.13;19.83;101756.31;5095076;28;20048;-54
2022/05/19 08:15:48;;;;;;;5.85;1.40;;;;;;;26.17;20.45;101745.41;5081073;28;20071;-56
2022/05/19 08:18:20;;;;;;;3.65;1.73;;;;;;;26.18;20.29;101744.47;5094881;28;20067;-54
2022/05/19 08:20:51;;;;;;;9.20;1.60;;;;;;;26.19;20.10;101743.53;5090701;28;20044;-55
2022/05/19 08:23:30;;;;;;;6.25;1.55;;;;;;;26.14;20.17;101745.59;5085638;28;20036;-53
2022/05/19 08:26:00;;;;;;;7.90;1.58;;;;;;;26.15;20.49;101741.13;5095046;28;20181;-51
2022/05/19 08:28:37;;;;;;;5.07;1.27;;;;;;;26.19;20.68;101730.25;5076966;28;20118;-54
2022/05/19 08:31:08;;;;;;;4.30;1.65;;;;;;;26.27;20.65;101724.47;5094634;28;20479;-52
2022/05/19 08:33:44;;;;;;;8.57;1.73;;;;;;;26.29;20.96;101726.09;5094408;28;20055;-52
2022/05/19 08:36:15;;;;;;;3.30;1.23;;;;;;;26.32;21.02;101712.63;5095132;28;20056;-54
2022/05/19 08:38:43;;;;;;;5.88;1.52;;;;;;;26.34;20.74;101710.75;5094646;28;20055;-50
2022/05/19 08:41:16;;;;;;;8.90;1.95;;;;;;;26.34;20.89;101704.59;5092362;28;20056;-51
2022/05/19 08:43:49;;;;;;;5.25;1.35;;;;;;;26.26;21.31;101712.13;5093913;28;20052;-52
2022/05/19 08:46:24;;;;;;;2.25;1.33;;;;;;;26.21;21.03;101693.81;5094873;28;20144;-53
2022/05/19 08:48:55;;;;;;;5.82;1.52;;;;;;;26.10;21.16;101706.88;5094506;28;20219;-54
2022/05/19 08:51:29;;;;;;;5.05;1.20;;;;;;;26.01;21.58;101702.06;5077743;28;20465;-53
2022/05/19 08:54:04;;;;;;;2.70;1.20;;;;;;;25.97;21.39;101708.50;5098939;28;20525;-56
2022/05/19 08:56:36;;;;;;;10.02;1.90;;;;;;;25.95;21.52;101702.41;5094354;28;20052;-56
2022/05/19 08:59:21;;;;;;;3.90;1.33;;;;;;;25.95;21.60;101707.72;5094336;28;20048;-53
2022/05/19 09:01:52;;;;;;;3.95;1.30;;;;;;;25.92;21.91;101713.22;5093965;28;20079;-56
2022/05/19 09:04:45;;;;;;;4.03;1.38;;;;;;;25.91;21.64;101711.50;5093687;28;20048;-53
2022/05/19 09:10:24;;;;;;;4.18;1.33;;;;;;;25.93;21.77;101704.28;5094157;28;20051;-55
2022/05/19 09:13:00;;;;;;;5.03;1.40;;;;;;;25.91;22.30;101698.22;5093848;28;20052;-58
2022/05/19 09:15:28;;;;;;;5.40;1.45;;;;;;;25.94;22.44;101698.03;5078072;28;20518;-57
2022/05/19 09:17:57;;;;;;;6.25;1.55;;;;;;;25.90;22.39;101700.03;5087862;28;20071;-52
2022/05/19 09:20:35;;;;;;;5.28;1.65;;;;;;;25.92;22.35;101695.47;5089409;28;20048;-55
2022/05/19 09:23:08;;;;;;;7.53;1.60;;;;;;;25.95;22.18;101692.63;5084100;28;20055;-56
2022/05/19 09:25:43;;;;;;;6.80;1.50;;;;;;;25.95;22.53;101694.44;5093949;28;20377;-52
2022/05/19 09:28:13;;;;;;;4.78;1.58;;;;;;;25.97;22.55;101689.91;5093575;28;20492;-52
2022/05/19 09:30:51;;;;;;;4.63;1.40;;;;;;;26.00;22.08;101685.25;5093158;28;20078;-54
2022/05/19 09:33:21;;;;;;;10.60;1.83;;;;;;;26.01;22.15;101686.13;5093730;28;20067;-61
2022/05/19 09:35:55;;;;;;;6.13;1.65;;;;;;;26.04;22.29;101683.31;5093721;28;20059;-58
2022/05/19 09:38:46;;;;;;;3.22;1.23;;;;;;;26.07;21.91;101676.03;5085421;28;20070;-57
2022/05/19 09:41:24;;;;;;;3.67;1.30;;;;;;;26.14;22.53;101684.47;5090066;28;20044;-60
2022/05/19 09:43:55;;;;;;;4.30;1.52;;;;;;;26.21;22.17;101677.84;5093266;28;20372;-58
2022/05/19 09:46:26;;;;;;;4.60;1.50;;;;;;;26.22;22.30;101673.41;5093184;28;20113;-56
2022/05/19 09:49:05;;;;;;;2.65;1.15;;;;;;;26.24;22.50;101674.16;5096686;28;20184;-60
2022/05/19 09:51:42;;;;;;;3.65;1.42;;;;;;;26.28;22.92;101671.22;5092755;28;20056;-59
2022/05/19 09:54:12;;;;;;;3.97;1.60;;;;;;;26.28;22.87;101673.88;5093068;28;20044;-56
2022/05/19 09:56:49;;;;;;;4.70;1.75;;;;;;;26.29;22.61;101664.97;5093664;28;20056;-60
2022/05/19 09:59:26;;;;;;;8.18;1.50;;;;;;;26.35;22.46;101667.28;5093376;28;20187;-59
2022/05/19 10:02:05;;;;;;;2.53;1.42;;;;;;;26.44;22.35;101667.69;5093322;28;20039;-58
2022/05/19 10:04:42;;;;;;;4.90;1.83;;;;;;;26.46;22.56;101665.78;5093225;28;20143;-56
2022/05/19 10:07:22;;;;;;;6.60;1.45;;;;;;;26.47;22.54;101664.84;5093138;28;20682;-58
2022/05/19 10:09:53;;;;;;;2.15;1.40;;;;;;;26.42;22.52;101655.34;5092992;28;20464;-57
2022/05/19 10:12:24;;;;;;;4.13;1.30;;;;;;;26.37;22.69;101662.75;5092296;28;20047;-57
2022/05/19 10:15:03;;;;;;;5.60;1.83;;;;;;;26.31;22.47;101657.75;5092070;28;20389;-57
2022/05/19 10:17:46;;;;;;;5.78;1.45;;;;;;;26.30;22.60;101656.06;5077952;28;20046;-58
2022/05/19 10:20:22;;;;;;;5.32;1.70;;;;;;;26.35;22.92;101648.69;5093079;28;20056;-57
2022/05/19 10:23:18;;;;;;;45.97;4.47;;;;;;;26.41;22.82;101637.69;5092912;28;20490;-56
2022/05/19 10:26:20;;;;;;;3.55;2.00;;;;;;;26.45;22.77;101643.66;5079731;28;20048;-57
2022/05/19 10:32:02;;;;;;;6.13;1.80;;;;;;;26.48;23.12;101629.34;5080371;28;20173;-56
2022/05/19 10:34:42;;;;;;;5.38;1.60;;;;;;;26.48;22.88;101626.66;5076760;28;20055;-53
2022/05/19 10:37:24;;;;;;;3.67;1.38;;;;;;;26.50;22.88;101627.44;5092815;28;20056;-58
2022/05/19 10:40:41;;;;;;;8.25;2.17;;;;;;;26.57;22.66;101632.31;5092577;28;20415;-54
2022/05/19 10:43:32;;;;;;;5.05;1.30;;;;;;;26.61;22.79;101627.66;5087559;28;20052;-54
2022/05/19 10:46:01;;;;;;;4.57;1.50;;;;;;;26.62;23.15;101618.72;5092873;28;20044;-55
2022/05/19 10:48:51;;;;;;;3.90;1.45;;;;;;;26.69;22.59;101622.72;5092591;28;20086;-58
2022/05/19 10:51:27;;;;;;;4.60;1.73;;;;;;;26.74;22.88;101623.28;5092123;28;20052;-58
2022/05/19 10:54:22;;;;;;;5.97;1.38;;;;;;;26.78;22.53;101616.81;5092567;28;20464;-57
2022/05/19 10:57:24;;;;;;;6.10;1.65;;;;;;;26.76;22.63;101618.72;5091842;28;20425;-53
2022/05/19 11:00:21;;;;;;;5.05;1.63;;;;;;;26.76;22.53;101615.22;5048711;28;20716;-58
2022/05/19 11:03:34;;;;;;;4.28;1.88;;;;;;;26.78;22.77;101603.53;5081458;28;20106;-58
2022/05/19 11:06:30;;;;;;;5.05;1.70;;;;;;;26.83;23.33;101605.91;5085963;28;20048;-58
2022/05/19 11:09:18;;;;;;;5.28;1.63;;;;;;;26.91;23.41;101604.47;5091345;28;20048;-58
2022/05/19 11:12:00;;;;;;;4.57;1.48;;;;;;;26.97;23.49;101596.09;5090037;28;20134;-58
2022/05/19 11:14:45;;;;;;;8.85;2.25;;;;;;;27.00;23.15;101593.25;5080546;28;20084;-57
2022/05/19 11:17:37;;;;;;;5.32;2.08;;;;;;;27.03;23.70;101592.22;5092430;28;20050;-58
2022/05/19 11:20:10;;;;;;;2.55;1.50;;;;;;;27.06;23.64;101585.88;5083388;28;20055;-57
2022/05/19 11:22:40;;;;;;;13.82;2.65;;;;;;;27.07;23.39;101593.75;5085475;28;20418;-58
2022/05/19 11:28:07;;;;;;;4.63;1.92;;;;;;;27.04;23.46;101576.16;5095754;28;20063;-57
2022/05/19 11:30:42;;;;;;;7.40;1.60;;;;;;;27.03;23.95;101570.94;5095371;28;20056;-58
2022/05/19 11:33:30;;;;;;;4.22;1.80;;;;;;;26.99;23.84;101575.59;5095352;28;20048;-56
2022/05/19 11:36:05;;;;;;;10.00;2.03;;;;;;;26.96;23.96;101565.13;5096098;28;20373;-58
2022/05/19 11:38:44;;;;;;;7.93;2.00;;;;;;;26.96;23.70;101565.13;5095987;28;20664;-59
2022/05/19 11:41:23;;;;;;;5.93;1.50;;;;;;;26.95;23.78;101558.09;5085708;28;20080;-61
2022/05/19 11:43:58;;;;;;;4.68;1.73;;;;;;;26.94;24.04;101556.38;5098220;28;20046;-61
2022/05/19 11:46:34;;;;;;;8.05;1.92;;;;;;;26.94;23.86;101545.72;5093458;28;20480;-62
2022/05/19 11:57:46;;;;;;;18.48;2.30;;;;;;;27.03;24.04;101553.16;5094892;28;20058;-56
2022/05/19 12:00:24;;;;;;;5.68;1.60;;;;;;;27.08;23.97;101552.03;5095535;28;20366;-53
2022/05/19 12:03:02;;;;;;;8.15;2.28;;;;;;;27.08;24.18;101547.56;5094061;28;20383;-59
2022/05/19 12:05:44;;;;;;;7.18;1.70;;;;;;;27.02;23.51;101547.94;5094807;28;20048;-57
2022/05/19 12:08:19;;;;;;;8.85;1.90;;;;;;;26.98;23.76;101547.28;5094237;28;20180;-57
2022/05/19 12:10:58;;;;;;;3.28;1.40;;;;;;;26.95;23.97;101542.13;5094227;28;20048;-57
2022/05/19 12:13:36;;;;;;;4.45;1.75;;;;;;;26.92;23.60;101536.16;5094630;28;20052;-59
2022/05/19 12:16:12;;;;;;;18.65;2.50;;;;;;;26.87;23.74;101533.78;5079857;28;20121;-59
2022/05/19 12:18:48;;;;;;;5.85;1.90;;;;;;;26.87;23.87;101539.09;5094403;28;20048;-56
2022/05/19 12:24:58;;;;;;;6.20;1.50;;;;;;;26.88;24.09;101514.22;5044454;28;20056;-60
2022/05/19 12:27:33;;;;;;;4.70;1.70;;;;;;;26.93;24.08;101522.75;5090582;28;20491;-60
2022/05/19 12:31:56;;;;;;;4.35;1.77;;;;;;;26.92;24.17;101520.19;5079203;28;20500;-58
2022/05/19 12:33:02;;;;;;;4.57;1.90;;;;;;;26.92;24.17;101510.41;5093913;28;20056;-57
2022/05/19 12:35:32;;;;;;;6.93;1.50;;;;;;;26.91;23.90;101511.34;5094310;28;20060;-60
2022/05/19 12:38:11;;;;;;;5.80;1.80;;;;;;;26.87;24.17;101507.19;5094309;28;20048;-58
2022/05/19 12:40:56;;;;;;;3.38;1.75;;;;;;;26.86;24.44;101504.63;5094098;28;20399;-58